Thursday, April 26, 2018, 4:56 PM EDT
Back to Local

KNHK, Nas Patuxent River Md

Location: Patuxent River, MD, United States Lat: 38.3
Local Time: 4:56 PM EDT (20:56 GMT) Lon: -76.4
Time Zone: US/Eastern Elev: 39 ft

Show me the last for .
Show Decoded

2018-04-26 15:52 METAR KNHK 261952Z 10009KT 10SM SCT260 19/08 A2984 RMK AO2 SLP105 T01940078 =
2018-04-26 14:52 METAR KNHK 261852Z 11009KT 10SM SCT260 18/07 A2986 RMK AO2 SLP111 T01830072 =
2018-04-26 13:52 METAR KNHK 261752Z 13008KT 10SM FEW260 18/07 A2986 RMK AO2 SLP112 T01780072
                 58003 =
2018-04-26 12:52 METAR KNHK 261652Z 32008KT 10SM FEW260 20/06 A2986 RMK AO2 SLP112 T02000056 =
2018-04-26 11:52 METAR KNHK 261552Z 33010KT 10SM SCT260 18/06 A2987 RMK AO2 SLP115 T01830056 =
2018-04-26 10:52 METAR KNHK 261452Z 33012KT 10SM BKN260 17/05 A2987 RMK AO2 SLP115 T01670050
                 51005 =
2018-04-26 09:52 METAR KNHK 261352Z 33015KT 10SM BKN260 16/06 A2987 RMK AO2 SLP114 T01560056 =
2018-04-26 08:52 METAR KNHK 261252Z 31010KT 10SM CLR 14/04 A2987 RMK AO2 SLP113 T01440044 =
2018-04-26 07:52 METAR KNHK 261152Z COR 30009KT 10SM SCT250 12/05 A2986 RMK AO2 SLP110 70027
                 T01220050 53020 $ =
2018-04-26 06:52 METAR KNHK 261052Z 30012KT 10SM FEW100 BKN250 11/05 A2982 RMK AO2 SLP098
                 T01060050 =
2018-04-26 05:52 METAR KNHK 260952Z 32014KT 10SM FEW100 BKN250 12/08 A2980 RMK AO2 SLP090
                 T01170078 $ =
2018-04-26 04:52 METAR KNHK 260852Z AUTO 31014KT 10SM CLR A2979 RMK AO2 SLP090 53023 $ =
2018-04-26 03:52 METAR KNHK 260752Z AUTO 30011KT 10SM CLR A2977 RMK AO2 SLP083 $ =
2018-04-26 02:52 METAR KNHK 260652Z AUTO 27009KT 10SM CLR A2974 RMK AO2 SLP073 $ =
2018-04-26 01:52 METAR KNHK 260552Z AUTO 29011KT 10SM CLR 15/13 A2973 RMK AO2 SLP067 60004
                 T01500128 10172 20139 53002 $ =
2018-04-26 00:52 METAR KNHK 260452Z AUTO 26006KT 10SM CLR 14/13 A2972 RMK AO2 SLP064 T01440133
                 401890139 $ =
2018-04-25 23:52 METAR KNHK 260352Z AUTO 29006KT 10SM FEW100 15/14 A2972 RMK AO2 SLP063 T01500139
                 $ =
2018-04-25 22:52 METAR KNHK 260252Z 28007KT 10SM FEW050 BKN090 16/14 A2972 RMK AO2 SLP065 60004
                 T01610144 51012 $ =
2018-04-25 21:52 METAR KNHK 260152Z 29007KT 10SM SCT025 BKN045 16/15 A2972 RMK AO2 RAB01E35
                 SLP064 P0004 T01610150 $ =
2018-04-25 21:17 METAR KNHK 260117Z 30007KT 5SM RA BR FEW010 SCT022 OVC036 16/15 A2972 RMK AO2
                 RAB01 P0003 T01610150 $ =
2018-04-25 20:52 METAR KNHK 260052Z 28007KT 10SM SCT009 OVC020 17/16 A2971 RMK AO2 SLP061
                 T01720156 $ =
2018-04-25 20:37 METAR KNHK 260037Z 27007KT 10SM SCT009 OVC019 17/16 A2971 RMK AO2 T01720156 $ =
2018-04-25 19:52 METAR KNHK 252352Z 24005KT 5SM BR BKN008 OVC018 17/16 A2969 RMK AO2 DZE52 SLP053
                 P0000 60023 T01670161 10189 20161 53007 $ =
2018-04-25 18:52 METAR KNHK 252252Z 29003KT 2 1/2SM -DZ BR BKN005 OVC015 16/16 A2967 RMK AO2
                 RAE30DZB39 SLP047 P0013 T01610156 $ =
2018-04-25 18:42 METAR KNHK 252242Z 31005KT 1SM -DZ BR BKN005 OVC015 16/16 A2967 RMK AO2 SFC VIS
                 2 1/2 RAE30DZB39 P0013 T01610156 $ =
2018-04-25 18:03 METAR KNHK 252203Z 31007KT 1/2SM RA BR OVC005 16/16 A2967 RMK AO2 SFC VIS 1 1/4
                 P0005 T01610156 $ =
2018-04-25 17:52 METAR KNHK 252152Z 32006KT 1 1/4SM +RA BR FEW004 BKN008 OVC014 16/16 A2967 RMK
                 AO2 RAB38 SLP048 P0010 T01610156 $ =
2018-04-25 17:40 METAR KNHK 252140Z 32006KT 2 1/2SM -RA BR FEW004 BKN008 OVC014 17/15 A2967 RMK
                 AO2 RAB38 P0000 T01670150 $ =

Support USWX by starting your Amazon purchase here.